sensor_id;sensor_type;location;lat;lon;timestamp;temperature;humidity
71367;DHT22;60030;52.274;8.040;2023-02-01T00:01:20;6.20;99.90
71367;DHT22;60030;52.274;8.040;2023-02-01T00:03:47;6.20;99.90
71367;DHT22;60030;52.274;8.040;2023-02-01T00:06:15;6.20;99.90
71367;DHT22;60030;52.274;8.040;2023-02-01T00:08:42;6.20;99.90
71367;DHT22;60030;52.274;8.040;2023-02-01T00:11:11;6.20;99.90
71367;DHT22;60030;52.274;8.040;2023-02-01T00:13:40;6.30;99.90
71367;DHT22;60030;52.274;8.040;2023-02-01T00:16:09;6.20;99.90
71367;DHT22;60030;52.274;8.040;2023-02-01T00:18:36;6.20;99.90
71367;DHT22;60030;52.274;8.040;2023-02-01T00:21:03;6.20;99.90
71367;DHT22;60030;52.274;8.040;2023-02-01T00:23:33;6.20;99.90
71367;DHT22;60030;52.274;8.040;2023-02-01T00:26:01;6.20;99.90
71367;DHT22;60030;52.274;8.040;2023-02-01T00:28:28;6.20;99.90
71367;DHT22;60030;52.274;8.040;2023-02-01T00:30:56;6.10;99.90
71367;DHT22;60030;52.274;8.040;2023-02-01T00:33:24;6.20;99.90
71367;DHT22;60030;52.274;8.040;2023-02-01T00:35:51;6.30;99.90
71367;DHT22;60030;52.274;8.040;2023-02-01T00:38:22;6.30;99.90
71367;DHT22;60030;52.274;8.040;2023-02-01T00:40:50;6.40;99.90
71367;DHT22;60030;52.274;8.040;2023-02-01T00:43:17;6.30;99.90
71367;DHT22;60030;52.274;8.040;2023-02-01T00:45:45;6.30;99.90
71367;DHT22;60030;52.274;8.040;2023-02-01T00:48:13;6.30;99.90
71367;DHT22;60030;52.274;8.040;2023-02-01T00:50:41;6.30;99.90
71367;DHT22;60030;52.274;8.040;2023-02-01T00:53:09;6.30;99.90
71367;DHT22;60030;52.274;8.040;2023-02-01T00:55:36;6.30;99.90
71367;DHT22;60030;52.274;8.040;2023-02-01T00:58:04;6.30;99.90
71367;DHT22;60030;52.274;8.040;2023-02-01T01:00:35;6.40;99.90
71367;DHT22;60030;52.274;8.040;2023-02-01T01:03:02;6.40;99.90
71367;DHT22;60030;52.274;8.040;2023-02-01T01:05:43;6.40;99.90
71367;DHT22;60030;52.274;8.040;2023-02-01T01:08:10;6.40;99.90
71367;DHT22;60030;52.274;8.040;2023-02-01T01:10:38;6.40;99.90
71367;DHT22;60030;52.274;8.040;2023-02-01T01:13:06;6.40;99.90
71367;DHT22;60030;52.274;8.040;2023-02-01T01:15:36;6.40;99.90
71367;DHT22;60030;52.274;8.040;2023-02-01T01:18:03;6.40;99.90
71367;DHT22;60030;52.274;8.040;2023-02-01T01:20:31;6.30;99.90
71367;DHT22;60030;52.274;8.040;2023-02-01T01:22:58;6.40;99.90
71367;DHT22;60030;52.274;8.040;2023-02-01T01:25:25;6.30;99.90
71367;DHT22;60030;52.274;8.040;2023-02-01T01:27:52;6.30;99.90
71367;DHT22;60030;52.274;8.040;2023-02-01T01:30:21;6.30;99.90
71367;DHT22;60030;52.274;8.040;2023-02-01T01:32:48;6.30;99.90
71367;DHT22;60030;52.274;8.040;2023-02-01T01:35:15;6.30;99.90
71367;DHT22;60030;52.274;8.040;2023-02-01T01:37:42;6.30;99.90
71367;DHT22;60030;52.274;8.040;2023-02-01T01:40:10;6.20;99.90
71367;DHT22;60030;52.274;8.040;2023-02-01T01:42:39;6.30;99.90
71367;DHT22;60030;52.274;8.040;2023-02-01T01:45:19;6.10;99.90
71367;DHT22;60030;52.274;8.040;2023-02-01T01:47:51;6.20;99.90
71367;DHT22;60030;52.274;8.040;2023-02-01T01:50:24;6.20;99.90
71367;DHT22;60030;52.274;8.040;2023-02-01T01:52:55;6.30;99.90
71367;DHT22;60030;52.274;8.040;2023-02-01T01:55:24;6.10;99.90
71367;DHT22;60030;52.274;8.040;2023-02-01T01:57:57;6.20;99.90
71367;DHT22;60030;52.274;8.040;2023-02-01T02:00:26;6.30;99.90
71367;DHT22;60030;52.274;8.040;2023-02-01T02:02:58;6.20;99.90
71367;DHT22;60030;52.274;8.040;2023-02-01T02:05:26;6.20;99.90
71367;DHT22;60030;52.274;8.040;2023-02-01T02:07:58;6.20;99.90
71367;DHT22;60030;52.274;8.040;2023-02-01T02:10:25;6.20;99.90
71367;DHT22;60030;52.274;8.040;2023-02-01T02:13:14;6.30;99.90
71367;DHT22;60030;52.274;8.040;2023-02-01T02:15:46;6.10;99.90
71367;DHT22;60030;52.274;8.040;2023-02-01T02:18:20;6.20;99.90
71367;DHT22;60030;52.274;8.040;2023-02-01T02:21:08;6.20;99.90
71367;DHT22;60030;52.274;8.040;2023-02-01T02:24:09;6.10;99.90
71367;DHT22;60030;52.274;8.040;2023-02-01T02:27:02;6.30;99.90
71367;DHT22;60030;52.274;8.040;2023-02-01T02:32:53;6.30;99.90
71367;DHT22;60030;52.274;8.040;2023-02-01T02:35:30;6.30;99.90
71367;DHT22;60030;52.274;8.040;2023-02-01T02:38:09;6.30;99.90
71367;DHT22;60030;52.274;8.040;2023-02-01T02:40:45;6.40;99.90
71367;DHT22;60030;52.274;8.040;2023-02-01T02:43:18;6.40;99.90
71367;DHT22;60030;52.274;8.040;2023-02-01T02:46:09;6.50;99.90
71367;DHT22;60030;52.274;8.040;2023-02-01T02:49:02;6.50;99.90
71367;DHT22;60030;52.274;8.040;2023-02-01T02:51:37;6.50;99.90
71367;DHT22;60030;52.274;8.040;2023-02-01T02:54:25;6.50;99.90
71367;DHT22;60030;52.274;8.040;2023-02-01T02:57:15;6.50;99.90
71367;DHT22;60030;52.274;8.040;2023-02-01T03:00:03;6.50;99.90
71367;DHT22;60030;52.274;8.040;2023-02-01T03:02:49;6.40;99.90
71367;DHT22;60030;52.274;8.040;2023-02-01T03:05:35;6.40;99.90
71367;DHT22;60030;52.274;8.040;2023-02-01T03:08:10;6.40;99.90
71367;DHT22;60030;52.274;8.040;2023-02-01T03:10:44;6.50;99.90
71367;DHT22;60030;52.274;8.040;2023-02-01T03:13:19;6.50;99.90
71367;DHT22;60030;52.274;8.040;2023-02-01T03:15:51;6.50;99.90
71367;DHT22;60030;52.274;8.040;2023-02-01T03:18:26;6.50;99.90
71367;DHT22;60030;52.274;8.040;2023-02-01T03:20:55;6.50;99.90
71367;DHT22;60030;52.274;8.040;2023-02-01T03:23:28;6.50;99.90
71367;DHT22;60030;52.274;8.040;2023-02-01T03:25:56;6.50;99.90
71367;DHT22;60030;52.274;8.040;2023-02-01T03:28:25;6.50;99.90
71367;DHT22;60030;52.274;8.040;2023-02-01T03:30:55;6.50;99.90
71367;DHT22;60030;52.274;8.040;2023-02-01T03:33:24;6.40;99.90
71367;DHT22;60030;52.274;8.040;2023-02-01T03:35:59;6.50;99.90
71367;DHT22;60030;52.274;8.040;2023-02-01T03:38:32;6.60;99.90
71367;DHT22;60030;52.274;8.040;2023-02-01T03:41:08;6.50;99.90
71367;DHT22;60030;52.274;8.040;2023-02-01T03:43:44;6.50;99.90
71367;DHT22;60030;52.274;8.040;2023-02-01T03:46:19;6.50;99.90
71367;DHT22;60030;52.274;8.040;2023-02-01T03:48:49;6.50;99.90
71367;DHT22;60030;52.274;8.040;2023-02-01T03:51:17;6.50;99.90
71367;DHT22;60030;52.274;8.040;2023-02-01T03:53:47;6.60;99.90
71367;DHT22;60030;52.274;8.040;2023-02-01T03:56:17;6.60;99.90
71367;DHT22;60030;52.274;8.040;2023-02-01T03:58:45;6.50;99.90
71367;DHT22;60030;52.274;8.040;2023-02-01T04:01:27;6.50;99.90
71367;DHT22;60030;52.274;8.040;2023-02-01T04:03:54;6.50;99.90
71367;DHT22;60030;52.274;8.040;2023-02-01T04:06:22;6.50;99.90
71367;DHT22;60030;52.274;8.040;2023-02-01T04:08:50;6.50;99.90
71367;DHT22;60030;52.274;8.040;2023-02-01T04:11:18;6.50;99.90
71367;DHT22;60030;52.274;8.040;2023-02-01T04:13:45;6.50;99.90
71367;DHT22;60030;52.274;8.040;2023-02-01T04:16:12;6.40;99.90
71367;DHT22;60030;52.274;8.040;2023-02-01T04:18:39;6.40;99.90
71367;DHT22;60030;52.274;8.040;2023-02-01T04:21:06;6.30;99.90
71367;DHT22;60030;52.274;8.040;2023-02-01T04:23:33;6.40;99.90
71367;DHT22;60030;52.274;8.040;2023-02-01T04:26:04;6.30;99.90
71367;DHT22;60030;52.274;8.040;2023-02-01T04:28:31;6.30;99.90
71367;DHT22;60030;52.274;8.040;2023-02-01T04:30:59;6.30;99.90
71367;DHT22;60030;52.274;8.040;2023-02-01T04:33:26;6.30;99.90
71367;DHT22;60030;52.274;8.040;2023-02-01T04:35:53;6.30;99.90
71367;DHT22;60030;52.274;8.040;2023-02-01T04:38:20;6.20;99.90
71367;DHT22;60030;52.274;8.040;2023-02-01T04:40:48;6.20;99.90
71367;DHT22;60030;52.274;8.040;2023-02-01T04:43:17;6.20;99.90
71367;DHT22;60030;52.274;8.040;2023-02-01T04:45:47;6.20;99.90
71367;DHT22;60030;52.274;8.040;2023-02-01T04:48:15;6.20;99.90
71367;DHT22;60030;52.274;8.040;2023-02-01T04:50:43;6.20;99.90
71367;DHT22;60030;52.274;8.040;2023-02-01T04:53:13;6.20;99.90
71367;DHT22;60030;52.274;8.040;2023-02-01T04:55:41;6.20;99.90
71367;DHT22;60030;52.274;8.040;2023-02-01T04:58:08;6.30;99.90
71367;DHT22;60030;52.274;8.040;2023-02-01T05:00:37;6.20;99.90
71367;DHT22;60030;52.274;8.040;2023-02-01T05:03:04;6.40;99.90
71367;DHT22;60030;52.274;8.040;2023-02-01T05:05:31;6.30;99.90
71367;DHT22;60030;52.274;8.040;2023-02-01T05:07:58;6.20;99.90
71367;DHT22;60030;52.274;8.040;2023-02-01T05:10:25;6.20;99.90
71367;DHT22;60030;52.274;8.040;2023-02-01T05:12:52;6.20;99.90
71367;DHT22;60030;52.274;8.040;2023-02-01T05:15:38;6.10;99.90
71367;DHT22;60030;52.274;8.040;2023-02-01T05:18:05;6.10;99.90
71367;DHT22;60030;52.274;8.040;2023-02-01T05:20:33;6.10;99.90
71367;DHT22;60030;52.274;8.040;2023-02-01T05:23:00;6.10;99.90
71367;DHT22;60030;52.274;8.040;2023-02-01T05:25:27;6.10;99.90
71367;DHT22;60030;52.274;8.040;2023-02-01T05:27:54;6.20;99.90
71367;DHT22;60030;52.274;8.040;2023-02-01T05:30:21;6.20;99.90
71367;DHT22;60030;52.274;8.040;2023-02-01T05:32:51;6.10;99.90
71367;DHT22;60030;52.274;8.040;2023-02-01T05:35:18;6.10;99.90
71367;DHT22;60030;52.274;8.040;2023-02-01T05:37:45;6.10;99.90
71367;DHT22;60030;52.274;8.040;2023-02-01T05:40:12;6.10;99.90
71367;DHT22;60030;52.274;8.040;2023-02-01T05:42:40;6.10;99.90
71367;DHT22;60030;52.274;8.040;2023-02-01T05:45:08;6.20;99.90
71367;DHT22;60030;52.274;8.040;2023-02-01T05:47:35;6.20;99.90
71367;DHT22;60030;52.274;8.040;2023-02-01T05:50:04;6.20;99.90
71367;DHT22;60030;52.274;8.040;2023-02-01T05:52:32;6.10;99.90
71367;DHT22;60030;52.274;8.040;2023-02-01T05:54:59;6.00;99.90
71367;DHT22;60030;52.274;8.040;2023-02-01T05:57:26;6.10;99.90
71367;DHT22;60030;52.274;8.040;2023-02-01T05:59:54;6.10;99.90
71367;DHT22;60030;52.274;8.040;2023-02-01T06:02:21;6.10;99.90
71367;DHT22;60030;52.274;8.040;2023-02-01T06:04:49;6.10;99.90
71367;DHT22;60030;52.274;8.040;2023-02-01T06:07:18;6.20;99.90
71367;DHT22;60030;52.274;8.040;2023-02-01T06:09:45;6.20;99.90
71367;DHT22;60030;52.274;8.040;2023-02-01T06:12:12;6.10;99.90
71367;DHT22;60030;52.274;8.040;2023-02-01T06:14:39;6.20;99.90
71367;DHT22;60030;52.274;8.040;2023-02-01T06:17:06;6.10;99.90
71367;DHT22;60030;52.274;8.040;2023-02-01T06:19:34;6.20;99.90
71367;DHT22;60030;52.274;8.040;2023-02-01T06:22:01;6.10;99.90
71367;DHT22;60030;52.274;8.040;2023-02-01T06:24:30;6.20;99.90
71367;DHT22;60030;52.274;8.040;2023-02-01T06:26:57;6.20;99.90
71367;DHT22;60030;52.274;8.040;2023-02-01T06:29:24;6.30;99.90
71367;DHT22;60030;52.274;8.040;2023-02-01T06:31:52;6.30;99.90
71367;DHT22;60030;52.274;8.040;2023-02-01T06:34:19;6.30;99.90
71367;DHT22;60030;52.274;8.040;2023-02-01T06:36:48;6.30;99.90
71367;DHT22;60030;52.274;8.040;2023-02-01T06:39:15;6.40;99.90
71367;DHT22;60030;52.274;8.040;2023-02-01T06:41:45;6.30;99.90
71367;DHT22;60030;52.274;8.040;2023-02-01T06:44:13;6.40;99.90
71367;DHT22;60030;52.274;8.040;2023-02-01T06:46:40;6.40;99.90
71367;DHT22;60030;52.274;8.040;2023-02-01T06:49:07;6.40;99.90
71367;DHT22;60030;52.274;8.040;2023-02-01T06:51:34;6.30;99.90
71367;DHT22;60030;52.274;8.040;2023-02-01T06:54:01;6.40;99.90
71367;DHT22;60030;52.274;8.040;2023-02-01T06:56:29;6.40;99.90
71367;DHT22;60030;52.274;8.040;2023-02-01T06:58:58;6.40;99.90
71367;DHT22;60030;52.274;8.040;2023-02-01T07:01:26;6.50;99.90
71367;DHT22;60030;52.274;8.040;2023-02-01T07:03:53;6.50;99.90
71367;DHT22;60030;52.274;8.040;2023-02-01T07:06:20;6.50;99.90
71367;DHT22;60030;52.274;8.040;2023-02-01T07:08:47;6.60;99.90
71367;DHT22;60030;52.274;8.040;2023-02-01T07:11:16;6.60;99.90
71367;DHT22;60030;52.274;8.040;2023-02-01T07:13:43;6.50;99.90
71367;DHT22;60030;52.274;8.040;2023-02-01T07:16:14;6.50;99.90
71367;DHT22;60030;52.274;8.040;2023-02-01T07:18:42;6.60;99.90
71367;DHT22;60030;52.274;8.040;2023-02-01T07:21:09;6.60;99.90
71367;DHT22;60030;52.274;8.040;2023-02-01T07:23:36;6.60;99.90
71367;DHT22;60030;52.274;8.040;2023-02-01T07:26:04;6.60;99.90
71367;DHT22;60030;52.274;8.040;2023-02-01T07:28:33;6.70;99.90
71367;DHT22;60030;52.274;8.040;2023-02-01T07:31:04;6.70;99.90
71367;DHT22;60030;52.274;8.040;2023-02-01T07:33:33;6.70;99.90
71367;DHT22;60030;52.274;8.040;2023-02-01T07:36:02;6.70;99.90
71367;DHT22;60030;52.274;8.040;2023-02-01T07:38:29;6.70;99.90
71367;DHT22;60030;52.274;8.040;2023-02-01T07:40:57;6.80;99.90
71367;DHT22;60030;52.274;8.040;2023-02-01T07:43:25;6.80;99.90
71367;DHT22;60030;52.274;8.040;2023-02-01T07:45:53;6.80;99.90
71367;DHT22;60030;52.274;8.040;2023-02-01T07:48:21;6.70;99.90
71367;DHT22;60030;52.274;8.040;2023-02-01T07:50:57;6.80;99.90
71367;DHT22;60030;52.274;8.040;2023-02-01T07:53:25;6.80;99.90
71367;DHT22;60030;52.274;8.040;2023-02-01T07:55:52;6.80;99.90
71367;DHT22;60030;52.274;8.040;2023-02-01T07:58:19;6.80;99.90
71367;DHT22;60030;52.274;8.040;2023-02-01T08:00:46;6.80;99.90
71367;DHT22;60030;52.274;8.040;2023-02-01T08:03:31;6.80;99.90
71367;DHT22;60030;52.274;8.040;2023-02-01T08:05:59;6.80;99.90
71367;DHT22;60030;52.274;8.040;2023-02-01T08:08:26;6.90;99.90
71367;DHT22;60030;52.274;8.040;2023-02-01T08:10:57;6.90;99.90
71367;DHT22;60030;52.274;8.040;2023-02-01T08:13:24;6.90;99.90
71367;DHT22;60030;52.274;8.040;2023-02-01T08:15:51;6.90;99.90
71367;DHT22;60030;52.274;8.040;2023-02-01T08:18:18;6.90;99.90
71367;DHT22;60030;52.274;8.040;2023-02-01T08:20:46;6.90;99.90
71367;DHT22;60030;52.274;8.040;2023-02-01T08:23:14;7.00;99.90
71367;DHT22;60030;52.274;8.040;2023-02-01T08:25:42;7.00;99.90
71367;DHT22;60030;52.274;8.040;2023-02-01T08:28:10;7.10;99.90
71367;DHT22;60030;52.274;8.040;2023-02-01T08:30:37;7.10;99.90
71367;DHT22;60030;52.274;8.040;2023-02-01T08:33:05;7.10;99.90
71367;DHT22;60030;52.274;8.040;2023-02-01T08:35:34;7.10;99.90
71367;DHT22;60030;52.274;8.040;2023-02-01T08:38:02;7.10;99.90
71367;DHT22;60030;52.274;8.040;2023-02-01T08:40:31;7.20;99.90
71367;DHT22;60030;52.274;8.040;2023-02-01T08:42:58;7.30;99.90
71367;DHT22;60030;52.274;8.040;2023-02-01T08:45:28;7.30;99.90
71367;DHT22;60030;52.274;8.040;2023-02-01T08:47:55;7.40;99.90
71367;DHT22;60030;52.274;8.040;2023-02-01T08:50:23;7.40;99.90
71367;DHT22;60030;52.274;8.040;2023-02-01T08:52:52;7.30;99.90
71367;DHT22;60030;52.274;8.040;2023-02-01T08:55:19;7.30;99.90
71367;DHT22;60030;52.274;8.040;2023-02-01T08:57:48;7.40;99.90
71367;DHT22;60030;52.274;8.040;2023-02-01T09:00:16;7.50;99.90
71367;DHT22;60030;52.274;8.040;2023-02-01T09:02:44;7.50;99.90
71367;DHT22;60030;52.274;8.040;2023-02-01T09:05:11;7.50;99.90
71367;DHT22;60030;52.274;8.040;2023-02-01T09:07:39;7.50;99.90
71367;DHT22;60030;52.274;8.040;2023-02-01T09:10:07;7.60;99.90
71367;DHT22;60030;52.274;8.040;2023-02-01T09:12:35;7.60;99.90
71367;DHT22;60030;52.274;8.040;2023-02-01T09:15:06;7.70;99.90
71367;DHT22;60030;52.274;8.040;2023-02-01T09:17:34;7.70;99.90
71367;DHT22;60030;52.274;8.040;2023-02-01T09:20:02;7.80;99.90
71367;DHT22;60030;52.274;8.040;2023-02-01T09:22:29;7.70;99.90
71367;DHT22;60030;52.274;8.040;2023-02-01T09:24:56;7.70;99.90
71367;DHT22;60030;52.274;8.040;2023-02-01T09:27:23;7.80;99.90
71367;DHT22;60030;52.274;8.040;2023-02-01T09:29:51;8.00;99.90
71367;DHT22;60030;52.274;8.040;2023-02-01T09:32:21;7.90;99.90
71367;DHT22;60030;52.274;8.040;2023-02-01T09:34:48;7.90;99.90
71367;DHT22;60030;52.274;8.040;2023-02-01T09:37:15;7.90;99.90
71367;DHT22;60030;52.274;8.040;2023-02-01T09:39:43;7.90;99.90
71367;DHT22;60030;52.274;8.040;2023-02-01T09:42:25;7.90;99.90
71367;DHT22;60030;52.274;8.040;2023-02-01T09:45:10;7.90;99.90
71367;DHT22;60030;52.274;8.040;2023-02-01T09:47:46;8.00;99.90
71367;DHT22;60030;52.274;8.040;2023-02-01T09:50:16;8.00;99.90
71367;DHT22;60030;52.274;8.040;2023-02-01T09:52:52;8.10;99.90
71367;DHT22;60030;52.274;8.040;2023-02-01T09:55:27;8.30;99.90
71367;DHT22;60030;52.274;8.040;2023-02-01T09:58:00;8.40;99.90
71367;DHT22;60030;52.274;8.040;2023-02-01T10:00:34;8.40;99.90
71367;DHT22;60030;52.274;8.040;2023-02-01T10:03:03;8.30;99.90
71367;DHT22;60030;52.274;8.040;2023-02-01T10:05:43;8.20;99.90
71367;DHT22;60030;52.274;8.040;2023-02-01T10:08:21;8.30;99.90
71367;DHT22;60030;52.274;8.040;2023-02-01T10:10:54;8.30;99.90
71367;DHT22;60030;52.274;8.040;2023-02-01T10:13:32;8.40;99.90
71367;DHT22;60030;52.274;8.040;2023-02-01T10:16:10;8.40;99.90
71367;DHT22;60030;52.274;8.040;2023-02-01T10:19:04;8.40;99.90
71367;DHT22;60030;52.274;8.040;2023-02-01T10:21:42;8.30;99.90
71367;DHT22;60030;52.274;8.040;2023-02-01T10:24:42;8.30;99.90
71367;DHT22;60030;52.274;8.040;2023-02-01T10:27:16;8.10;99.90
71367;DHT22;60030;52.274;8.040;2023-02-01T10:29:46;8.10;99.90
71367;DHT22;60030;52.274;8.040;2023-02-01T10:32:17;8.20;99.90
71367;DHT22;60030;52.274;8.040;2023-02-01T10:34:49;8.30;99.90
71367;DHT22;60030;52.274;8.040;2023-02-01T10:37:24;8.30;99.90
71367;DHT22;60030;52.274;8.040;2023-02-01T10:39:54;8.20;99.90
71367;DHT22;60030;52.274;8.040;2023-02-01T10:42:25;8.10;99.90
71367;DHT22;60030;52.274;8.040;2023-02-01T10:44:54;8.20;99.90
71367;DHT22;60030;52.274;8.040;2023-02-01T10:47:23;8.10;99.90
71367;DHT22;60030;52.274;8.040;2023-02-01T10:49:56;8.10;99.90
71367;DHT22;60030;52.274;8.040;2023-02-01T10:52:32;8.20;99.90
71367;DHT22;60030;52.274;8.040;2023-02-01T10:58:03;8.20;99.90
71367;DHT22;60030;52.274;8.040;2023-02-01T11:00:42;8.20;99.90
71367;DHT22;60030;52.274;8.040;2023-02-01T11:03:21;8.30;99.90
71367;DHT22;60030;52.274;8.040;2023-02-01T11:05:50;8.20;99.90
71367;DHT22;60030;52.274;8.040;2023-02-01T11:08:17;8.20;99.90
71367;DHT22;60030;52.274;8.040;2023-02-01T11:10:45;8.20;99.90
71367;DHT22;60030;52.274;8.040;2023-02-01T11:13:15;8.10;99.90
71367;DHT22;60030;52.274;8.040;2023-02-01T11:15:46;8.10;99.90
71367;DHT22;60030;52.274;8.040;2023-02-01T11:18:28;7.90;99.90
71367;DHT22;60030;52.274;8.040;2023-02-01T11:20:58;7.90;99.90
71367;DHT22;60030;52.274;8.040;2023-02-01T11:23:28;7.90;99.90
71367;DHT22;60030;52.274;8.040;2023-02-01T11:25:58;7.80;99.90
71367;DHT22;60030;52.274;8.040;2023-02-01T11:28:29;7.80;99.90
71367;DHT22;60030;52.274;8.040;2023-02-01T11:31:01;7.70;99.90
71367;DHT22;60030;52.274;8.040;2023-02-01T11:33:31;7.70;99.90
71367;DHT22;60030;52.274;8.040;2023-02-01T11:36:07;7.60;99.90
71367;DHT22;60030;52.274;8.040;2023-02-01T11:38:34;7.60;99.90
71367;DHT22;60030;52.274;8.040;2023-02-01T11:41:20;7.50;99.90
71367;DHT22;60030;52.274;8.040;2023-02-01T11:43:52;7.50;99.90
71367;DHT22;60030;52.274;8.040;2023-02-01T11:46:23;7.40;99.90
71367;DHT22;60030;52.274;8.040;2023-02-01T11:48:53;7.40;99.90
71367;DHT22;60030;52.274;8.040;2023-02-01T11:51:35;7.30;99.90
71367;DHT22;60030;52.274;8.040;2023-02-01T11:57:18;7.30;99.90
71367;DHT22;60030;52.274;8.040;2023-02-01T11:59:59;7.30;99.90
71367;DHT22;60030;52.274;8.040;2023-02-01T12:02:56;7.20;99.90
71367;DHT22;60030;52.274;8.040;2023-02-01T12:05:33;7.30;99.90
71367;DHT22;60030;52.274;8.040;2023-02-01T12:08:16;7.30;99.90
71367;DHT22;60030;52.274;8.040;2023-02-01T12:10:55;7.30;99.90
71367;DHT22;60030;52.274;8.040;2023-02-01T12:13:36;7.20;99.90
71367;DHT22;60030;52.274;8.040;2023-02-01T12:16:17;7.20;99.90
71367;DHT22;60030;52.274;8.040;2023-02-01T12:19:10;7.10;99.90
71367;DHT22;60030;52.274;8.040;2023-02-01T12:21:52;7.00;99.90
71367;DHT22;60030;52.274;8.040;2023-02-01T12:27:43;7.00;99.90
71367;DHT22;60030;52.274;8.040;2023-02-01T12:30:27;7.00;99.90
71367;DHT22;60030;52.274;8.040;2023-02-01T12:33:05;7.00;99.90
71367;DHT22;60030;52.274;8.040;2023-02-01T12:35:47;6.80;99.90
71367;DHT22;60030;52.274;8.040;2023-02-01T12:38:37;7.00;99.90
71367;DHT22;60030;52.274;8.040;2023-02-01T12:41:26;7.00;99.90
71367;DHT22;60030;52.274;8.040;2023-02-01T12:43:57;7.10;99.90
71367;DHT22;60030;52.274;8.040;2023-02-01T12:46:29;7.00;99.90
71367;DHT22;60030;52.274;8.040;2023-02-01T12:49:00;7.20;99.90
71367;DHT22;60030;52.274;8.040;2023-02-01T12:51:31;7.30;99.90
71367;DHT22;60030;52.274;8.040;2023-02-01T12:54:04;7.30;99.90
71367;DHT22;60030;52.274;8.040;2023-02-01T12:56:38;7.10;99.90
71367;DHT22;60030;52.274;8.040;2023-02-01T12:59:19;7.00;99.90
71367;DHT22;60030;52.274;8.040;2023-02-01T13:01:51;7.00;99.90
71367;DHT22;60030;52.274;8.040;2023-02-01T13:04:27;7.00;99.90
71367;DHT22;60030;52.274;8.040;2023-02-01T13:07:01;7.00;99.90
71367;DHT22;60030;52.274;8.040;2023-02-01T13:09:34;7.00;99.90
71367;DHT22;60030;52.274;8.040;2023-02-01T13:12:11;6.80;99.90
71367;DHT22;60030;52.274;8.040;2023-02-01T13:14:43;7.00;99.90
71367;DHT22;60030;52.274;8.040;2023-02-01T13:17:15;6.90;99.90
71367;DHT22;60030;52.274;8.040;2023-02-01T13:19:48;7.00;99.90
71367;DHT22;60030;52.274;8.040;2023-02-01T13:22:19;7.20;99.90
71367;DHT22;60030;52.274;8.040;2023-02-01T13:24:49;7.30;99.90
71367;DHT22;60030;52.274;8.040;2023-02-01T13:27:19;7.30;99.90
71367;DHT22;60030;52.274;8.040;2023-02-01T13:29:52;7.30;99.90
71367;DHT22;60030;52.274;8.040;2023-02-01T13:32:43;7.20;99.90
71367;DHT22;60030;52.274;8.040;2023-02-01T13:41:27;7.20;99.90
71367;DHT22;60030;52.274;8.040;2023-02-01T13:43:59;7.20;99.90
71367;DHT22;60030;52.274;8.040;2023-02-01T13:46:27;7.20;99.90
71367;DHT22;60030;52.274;8.040;2023-02-01T13:48:56;7.20;99.90
71367;DHT22;60030;52.274;8.040;2023-02-01T13:51:40;7.10;99.90
71367;DHT22;60030;52.274;8.040;2023-02-01T13:54:27;7.10;99.90
71367;DHT22;60030;52.274;8.040;2023-02-01T13:56:55;7.10;99.90
71367;DHT22;60030;52.274;8.040;2023-02-01T13:59:49;7.10;99.90
71367;DHT22;60030;52.274;8.040;2023-02-01T14:02:49;7.20;99.90
71367;DHT22;60030;52.274;8.040;2023-02-01T14:05:55;7.20;99.90
71367;DHT22;60030;52.274;8.040;2023-02-01T14:08:39;7.10;99.90
71367;DHT22;60030;52.274;8.040;2023-02-01T14:11:34;7.10;99.90
71367;DHT22;60030;52.274;8.040;2023-02-01T14:17:37;7.10;99.90
71367;DHT22;60030;52.274;8.040;2023-02-01T14:23:24;7.10;99.90
71367;DHT22;60030;52.274;8.040;2023-02-01T14:29:00;7.50;99.90
71367;DHT22;60030;52.274;8.040;2023-02-01T14:31:52;7.80;99.90
71367;DHT22;60030;52.274;8.040;2023-02-01T14:34:28;8.10;99.90
71367;DHT22;60030;52.274;8.040;2023-02-01T14:36:59;8.30;99.90
71367;DHT22;60030;52.274;8.040;2023-02-01T14:39:34;7.90;99.90
71367;DHT22;60030;52.274;8.040;2023-02-01T14:42:12;7.90;99.90
71367;DHT22;60030;52.274;8.040;2023-02-01T14:44:41;7.70;99.90
71367;DHT22;60030;52.274;8.040;2023-02-01T14:47:30;7.70;99.90
71367;DHT22;60030;52.274;8.040;2023-02-01T14:53:14;7.60;99.90
71367;DHT22;60030;52.274;8.040;2023-02-01T14:55:44;7.60;99.90
71367;DHT22;60030;52.274;8.040;2023-02-01T14:58:27;7.70;99.90
71367;DHT22;60030;52.274;8.040;2023-02-01T15:00:58;7.70;99.90
71367;DHT22;60030;52.274;8.040;2023-02-01T15:03:43;7.70;99.90
71367;DHT22;60030;52.274;8.040;2023-02-01T15:06:26;7.50;99.90
71367;DHT22;60030;52.274;8.040;2023-02-01T15:08:55;7.60;99.90
71367;DHT22;60030;52.274;8.040;2023-02-01T15:11:24;7.60;99.90
71367;DHT22;60030;52.274;8.040;2023-02-01T15:13:52;7.60;99.90
71367;DHT22;60030;52.274;8.040;2023-02-01T15:16:22;7.50;99.90
71367;DHT22;60030;52.274;8.040;2023-02-01T15:18:50;7.40;99.90
71367;DHT22;60030;52.274;8.040;2023-02-01T15:21:20;7.50;99.90
71367;DHT22;60030;52.274;8.040;2023-02-01T15:23:47;7.50;99.90
71367;DHT22;60030;52.274;8.040;2023-02-01T15:26:27;7.60;99.90
71367;DHT22;60030;52.274;8.040;2023-02-01T15:28:56;7.60;99.90
71367;DHT22;60030;52.274;8.040;2023-02-01T15:31:34;7.70;99.90
71367;DHT22;60030;52.274;8.040;2023-02-01T15:34:01;7.70;99.90
71367;DHT22;60030;52.274;8.040;2023-02-01T15:36:30;7.50;99.90
71367;DHT22;60030;52.274;8.040;2023-02-01T15:39:19;7.50;99.90
71367;DHT22;60030;52.274;8.040;2023-02-01T15:41:50;7.50;99.90
71367;DHT22;60030;52.274;8.040;2023-02-01T15:44:28;7.40;99.90
71367;DHT22;60030;52.274;8.040;2023-02-01T15:46:55;7.50;99.90
71367;DHT22;60030;52.274;8.040;2023-02-01T15:49:26;7.50;99.90
71367;DHT22;60030;52.274;8.040;2023-02-01T15:51:57;7.70;99.90
71367;DHT22;60030;52.274;8.040;2023-02-01T15:54:28;7.60;99.90
71367;DHT22;60030;52.274;8.040;2023-02-01T15:56:58;7.50;99.90
71367;DHT22;60030;52.274;8.040;2023-02-01T15:59:30;7.50;99.90
71367;DHT22;60030;52.274;8.040;2023-02-01T16:01:58;7.70;99.90
71367;DHT22;60030;52.274;8.040;2023-02-01T16:04:27;7.60;99.90
71367;DHT22;60030;52.274;8.040;2023-02-01T16:06:58;7.50;99.90
71367;DHT22;60030;52.274;8.040;2023-02-01T16:09:36;7.60;99.90
71367;DHT22;60030;52.274;8.040;2023-02-01T16:12:23;7.60;99.90
71367;DHT22;60030;52.274;8.040;2023-02-01T16:14:53;7.60;99.90
71367;DHT22;60030;52.274;8.040;2023-02-01T16:17:20;7.60;99.90
71367;DHT22;60030;52.274;8.040;2023-02-01T16:19:47;7.70;99.90
71367;DHT22;60030;52.274;8.040;2023-02-01T16:22:16;7.50;99.90
71367;DHT22;60030;52.274;8.040;2023-02-01T16:24:43;7.50;99.90
71367;DHT22;60030;52.274;8.040;2023-02-01T16:27:10;7.50;99.90
71367;DHT22;60030;52.274;8.040;2023-02-01T16:29:37;7.50;99.90
71367;DHT22;60030;52.274;8.040;2023-02-01T16:32:04;7.40;99.90
71367;DHT22;60030;52.274;8.040;2023-02-01T16:34:32;7.40;99.90
71367;DHT22;60030;52.274;8.040;2023-02-01T16:37:01;7.40;99.90
71367;DHT22;60030;52.274;8.040;2023-02-01T16:39:30;7.40;99.90
71367;DHT22;60030;52.274;8.040;2023-02-01T16:41:58;7.40;99.90
71367;DHT22;60030;52.274;8.040;2023-02-01T16:44:25;7.40;99.90
71367;DHT22;60030;52.274;8.040;2023-02-01T16:46:52;7.40;99.90